• Join FlightAware (Why Join?)
  • Login
  • US Flag 
08:09AM EDT


 

Airport Tracker/Info


-or-


 

Live Flight TrackerFlight Track Log ✈ AWE1940 ✈ 05-May-2013 ✈ KCLT - KALB

Flight Track Log - Related Links

Times and Time Zones

All times are in EDT time to prevent confusion due to time zone crossing. See the AWE1940 flight status page for this flight to view local times or setup timezone preferences in your user account.

Time Position Orientation Groundspeed Altitude Reporting Facility
EDT Latitude Longitude Course Direction KTS MPH feet Rate Location/Type
11:02PM 35.2306 -80.9392 30° Northeast 172 198 1,500  Level Atlanta Center
11:03PM 35.2922 -80.9064 23° Northeast 220 253 4,200 2,160 Climbing Atlanta Center
11:04PM 35.3011 -80.8475 80° East 215 247 6,400 2,280 Climbing Atlanta Center
11:05PM 35.1000 -80.6333 90° East  Level FlightAware Approximate
11:05PM 35.2950 -80.7664 95° East 246 283 8,700  Level Atlanta Center
11:06PM 35.1927 -80.5716 29° Northeast  Level FlightAware Approximate
11:06PM 35.2925 -80.6722 92° East 266 306 11,300  Level Atlanta Center
11:07PM 35.2840 -80.5067 30° Northeast  Level FlightAware Approximate
11:07PM 35.3142 -80.5594 77° East 308 354 13,000  Level Atlanta Center
11:08PM 35.3439 -80.4333 74° East 339 390 15,600 2,460 Climbing Atlanta Center
11:09PM 35.3819 -80.3094 69° East 368 423 18,000 2,340 Climbing Atlanta Center
11:10PM 35.4200 -80.1831 70° East 385 443 20,300 2,220 Climbing Atlanta Center
11:11PM 35.4553 -80.0511 72° East 397 457 22,500 1,620 Climbing Atlanta Center
11:12PM 35.4747 -79.9789 72° East 401 461 23,000 240 Climbing Washington Center
11:13PM 35.5086 -79.8456 73° East 395 455 23,000 60 Level Washington Center
11:14PM 35.5425 -79.7119 73° East 395 455 23,200 780 Climbing Washington Center
11:15PM 35.5833 -79.5533 72° East 413 475 24,600 1,500 Climbing Washington Center
11:16PM 35.6167 -79.4272 72° East 433 498 26,200 1,320 Climbing Washington Center
11:17PM 35.6919 -79.2978 54° Northeast 433 498 27,300 1,080 Climbing Washington Center
11:18PM 35.7750 -79.1661 52° Northeast 460 529 28,400 1,380 Climbing Washington Center
11:19PM 35.8583 -79.0339 52° Northeast 477 549 30,200 2,220 Climbing Washington Center
11:20PM 35.9369 -78.9039 53° Northeast 483 556 33,000 1,380 Climbing Washington Center
11:21PM 36.0242 -78.7664 52° Northeast 471 542 33,000  Level Washington Center
11:22PM 36.1028 -78.6383 53° Northeast 466 536 33,000  Level Washington Center
11:23PM 36.1831 -78.5128 52° Northeast 466 536 33,000  Level Washington Center
11:24PM 36.2611 -78.3844 53° Northeast 466 536 33,000  Level Washington Center
11:25PM 36.3394 -78.2531 53° Northeast 466 536 33,000  Level Washington Center
11:26PM 36.4172 -78.1242 53° Northeast 471 542 33,000  Level Washington Center
11:27PM 36.4822 -78.0100 55° Northeast 466 536 33,000 -60 Level Washington Center
11:28PM 36.5597 -77.8831 53° Northeast 466 536 32,900  Descending Washington Center
11:29PM 36.6372 -77.7586 52° Northeast 461 531 33,000  Climbing Washington Center
11:30PM 36.7125 -77.6311 54° Northeast 461 531 33,000  Level Washington Center
11:31PM 36.7875 -77.5058 53° Northeast 454 522 33,000  Level Washington Center
11:32PM 36.8647 -77.3753 53° Northeast 454 522 33,000  Level Washington Center
11:33PM 36.9375 -77.2497 54° Northeast 449 517 33,000  Level Washington Center
11:34PM 37.0206 -77.1111 53° Northeast 449 517 33,000  Level Washington Center
11:35PM 37.0931 -76.9850 54° Northeast 449 517 33,000  Level Washington Center
11:36PM 37.1653 -76.8586 54° Northeast 449 517 33,000  Level Washington Center
11:37PM 37.2397 -76.7319 54° Northeast 449 517 33,000  Level Washington Center
11:38PM 37.3139 -76.6050 54° Northeast 449 517 33,000  Level Washington Center
11:39PM 37.3878 -76.4806 53° Northeast 449 517 33,000  Level Washington Center
11:40PM 37.4594 -76.3558 54° Northeast 444 511 33,000  Level Washington Center
11:41PM 37.5436 -76.2597 42° Northeast 444 511 33,000  Level Washington Center
11:42PM 37.6442 -76.1689 36° Northeast 444 511 33,000 -60 Level Washington Center
11:43PM 37.7550 -76.0725 35° Northeast 437 503 32,900  Descending Washington Center
11:44PM 37.8431 -75.9836 39° Northeast 442 509 33,000  Climbing Washington Center
11:45PM 37.9433 -75.8892 37° Northeast 442 509 33,000  Level Washington Center
11:46PM 38.0500 -75.8106 30° Northeast 442 509 33,000  Level Washington Center
11:47PM 38.1522 -75.7344 30° Northeast 437 503 33,000  Level Washington Center
11:48PM 38.2564 -75.6525 32° Northeast 437 503 33,000  Level Washington Center
11:49PM 38.3650 -75.5758 29° Northeast 432 497 33,000  Level Washington Center
11:50PM 38.4692 -75.4936 32° Northeast 432 497 33,000  Level Washington Center
11:51PM 38.5733 -75.4164 30° Northeast 432 497 33,000  Level Washington Center
11:52PM 38.6753 -75.3392 31° Northeast 427 491 33,000  Level Washington Center
11:53PM 38.7794 -75.2561 32° Northeast 427 491 33,000  Level Washington Center
11:54PM 38.8814 -75.1783 31° Northeast 427 491 33,000  Level Washington Center
11:55PM 38.9853 -75.1003 30° Northeast 427 491 33,000 -60 Level Washington Center
11:56PM 39.0850 -75.0219 31° Northeast 427 491 32,900  Descending Washington Center
11:57PM 39.1867 -74.9408 32° Northeast 427 491 33,000  Climbing Washington Center
11:59PM 39.4600 -74.7719 25° Northeast 419 482 33,000  Level New York Center
12:00AM 39.5736 -74.7408 12° North 419 482 33,000  Level New York Center
12:01AM 39.6831 -74.7092 13° North 414 476 33,000  Level New York Center
12:02AM 39.7989 -74.6753 13° North 414 476 33,000  Level New York Center
12:03AM 39.9103 -74.6436 12° North 414 476 33,000  Level New York Center
12:04AM 40.0258 -74.6147 11° North 408 470 33,000  Level New York Center
12:05AM 40.1375 -74.5803 13° North 408 470 33,000  Level New York Center
12:06AM 40.2258 -74.5550 12° North 408 470 33,000  Level New York Center
12:07AM 40.3439 -74.5181 13° North 403 464 33,000  Level New York Center
12:08AM 40.4553 -74.4831 13° North 403 464 33,000  Level New York Center
12:09AM 40.5667 -74.4511 12° North 398 458 33,000  Level New York Center
12:10AM 40.6761 -74.4214 12° North 398 458 33,000  Level New York Center
12:13AM 40.9192 -74.3547 12° North 418 481 33,000  Level Boston Center
12:14AM 41.0300 -74.3222 12° North 413 475 33,000 -1,140 Level Boston Center
12:15AM 41.1411 -74.2867 14° North 413 475 30,800 -3,180 Descending Boston Center
12:16AM 41.2625 -74.2489 13° North 408 470 26,700 -2,400 Descending Boston Center
12:17AM 41.3736 -74.2189 11° North 403 464 26,000 -780 Descending Boston Center
12:18AM 41.4908 -74.1833 13° North 413 475 25,200 -1,320 Descending Boston Center
12:19AM 41.5933 -74.1556 11° North 419 482 23,400 -1,860 Descending Boston Center
12:20AM 41.7044 -74.1194 14° North 414 476 21,500 -1,860 Descending Boston Center
12:21AM 41.8111 -74.0917 11° North 403 464 19,700 -1,980 Descending Boston Center
12:21AM 41.9158 -74.0583 13° North 394 453 17,900 -2,160 Descending Boston Center
12:23AM 42.0308 -74.0250 12° North 389 448 15,500 -2,460 Descending Boston Center
12:24AM 42.1333 -73.9939 13° North 384 442 12,800 -2,280 Descending Boston Center
12:25AM 42.2317 -73.9656 12° North 368 423 11,000 -1,140 Descending Boston Center
12:26AM 42.3258 -73.9481 North 295 339 10,600 -1,020 Descending Boston Center
12:27AM 42.4050 -73.9528 357° North 299 344 9,000 -1,680 Descending Boston Center
12:28AM 42.4819 -73.9603 356° North 285 328 7,300 -1,560 Descending Boston Center
12:29AM 42.5631 -73.9708 355° North 280 322 5,900 -1,380 Descending Boston Center
12:30AM 42.6297 -73.9808 354° North 274 315 4,600 -960 Descending Boston Center
12:31AM 42.7044 -73.9911 354° North 274 315 4,000 -420 Descending Boston Center
12:32AM 42.7756 -73.9817 North 269 310 3,800 -540 Descending Boston Center
12:33AM 42.8344 -73.9406 27° Northeast 244 281 3,000 -660 Descending Boston Center
12:34AM 42.8831 -73.8853 40° Northeast 244 281 2,500 -780 Descending Boston Center
12:35AM 42.8131 -73.8100 142° Southeast 134 154 1,400 6,240 Descending Boston Center
12:36AM 42.9883 -73.8025 North 244 281 15,000 15,060 Climbing Boston Center